| time (UTC) | temp F | wind direction | speed MPH | gust MPH | rain 1hr in | rain 24hr in | rain mn in | humidity % | barometer mb |
| 20260903051505 | 74 | 0.0 | 0.0 | 0.00 | 0.00 | 0.00 | 88 | 1010.6 | |
| 20260903050020 | 74 | 0.0 | 0.0 | 0.00 | 0.00 | 0.00 | 88 | 1012.5 | |
| 20260903050005 | 76 | 0.0 | 3.0 | 0.00 | 0.00 | 0.00 | 84 | 1010.1 | |
| 20260903044506 | 76 | 0.0 | 3.0 | 0.00 | 0.00 | 0.00 | 84 | 1010.1 | |
| 20260903043006 | 76 | 0.0 | 3.0 | 0.00 | 0.00 | 0.00 | 84 | 1010.1 | |
| 20260903041506 | 76 | 0.0 | 3.0 | 0.00 | 0.00 | 0.00 | 84 | 1010.1 | |
| 20260903040040 | 76 | 0.0 | 3.0 | 0.00 | 0.00 | 0.00 | 84 | 1012.1 | |
| 20260903040008 | 78 | 0.0 | 4.0 | 0.00 | 0.00 | 0.00 | 77 | 1010.1 | |
| 20260903034505 | 78 | 0.0 | 4.0 | 0.00 | 0.00 | 0.00 | 77 | 1010.1 | |
| 20260903033005 | 78 | 0.0 | 4.0 | 0.00 | 0.00 | 0.00 | 77 | 1010.1 | |
| 20260903031505 | 78 | 0.0 | 4.0 | 0.00 | 0.00 | 0.00 | 77 | 1010.1 | |
| 20260903030039 | 78 | 0.0 | 4.0 | 0.00 | 0.00 | 0.00 | 77 | 1012.0 | |
| 20260903030006 | 78 | 0.0 | 0.0 | 0.00 | 0.00 | 0.00 | 87 | 1009.9 | |
| 20260903024505 | 78 | 0.0 | 0.0 | 0.00 | 0.00 | 0.00 | 87 | 1009.9 | |
| 20260903023006 | 78 | 0.0 | 0.0 | 0.00 | 0.00 | 0.00 | 87 | 1009.9 | |
| 20260903021506 | 78 | 0.0 | 0.0 | 0.00 | 0.00 | 0.00 | 87 | 1009.9 | |
| 20260903020019 | 78 | 0.0 | 0.0 | 0.00 | 0.00 | 0.00 | 87 | 1011.8 | |
| 20260903020006 | 81 | 0.0 | 0.0 | 0.00 | 0.00 | 0.00 | 82 | 1009.6 | |
| 20260903014505 | 81 | 0.0 | 0.0 | 0.00 | 0.00 | 0.00 | 82 | 1009.6 | |
| 20260903013005 | 81 | 0.0 | 0.0 | 0.00 | 0.00 | 0.00 | 82 | 1009.6 | |
| 20260903011505 | 81 | 0.0 | 0.0 | 0.00 | 0.00 | 0.00 | 82 | 1009.6 | |
| 20260903010019 | 81 | 0.0 | 0.0 | 0.00 | 0.00 | 0.00 | 82 | 1011.4 | |
| 20260903010005 | 85 | 0.0 | 2.0 | 0.00 | 0.00 | 0.00 | 75 | 1009.5 | |
| 20260903004505 | 85 | 0.0 | 2.0 | 0.00 | 0.00 | 0.00 | 75 | 1009.5 | |
| 20260903003005 | 85 | 0.0 | 2.0 | 0.00 | 0.00 | 0.00 | 75 | 1009.5 | |
| 20260903001505 | 85 | 0.0 | 2.0 | 0.00 | 0.00 | 0.00 | 75 | 1009.5 | |
| 20260903000018 | 85 | 0.0 | 2.0 | 0.00 | 0.00 | 0.00 | 75 | 1011.5 | |
| 20260903000006 | 88 | 0.0 | 5.0 | 0.00 | 0.00 | 0.00 | 67 | 1009.1 | |
| 20260902234506 | 88 | 0.0 | 5.0 | 0.00 | 0.00 | 0.00 | 67 | 1009.1 | |
| 20260902233006 | 88 | 0.0 | 5.0 | 0.00 | 0.00 | 0.00 | 67 | 1009.1 | |
| 20260902231505 | 88 | 0.0 | 5.0 | 0.00 | 0.00 | 0.00 | 67 | 1009.1 | |
| 20260902230019 | 88 | 0.0 | 5.0 | 0.00 | 0.00 | 0.00 | 67 | 1011.2 | |
| 20260902230005 | 89 | 360 | 0.0 | 9.0 | 0.00 | 0.00 | 0.00 | 66 | 1009.1 |
| 20260902224505 | 89 | 360 | 0.0 | 9.0 | 0.00 | 0.00 | 0.00 | 66 | 1009.1 |
| 20260902223005 | 89 | 360 | 0.0 | 9.0 | 0.00 | 0.00 | 0.00 | 66 | 1009.1 |
| 20260902221505 | 89 | 360 | 0.0 | 9.0 | 0.00 | 0.00 | 0.00 | 66 | 1009.1 |
| 20260902220058 | 89 | 0 | 1.0 | 9.0 | 0.00 | 0.00 | 0.00 | 66 | 1011.3 |
| 20260902220005 | 90 | 360 | 0.0 | 6.0 | 0.00 | 0.00 | 0.00 | 61 | 1009.5 |
| 20260902214506 | 90 | 360 | 0.0 | 6.0 | 0.00 | 0.00 | 0.00 | 61 | 1009.5 |
| 20260902213006 | 90 | 360 | 0.0 | 6.0 | 0.00 | 0.00 | 0.00 | 61 | 1009.5 |
| 20260902211506 | 90 | 360 | 0.0 | 6.0 | 0.00 | 0.00 | 0.00 | 61 | 1009.5 |
| 20260902210018 | 91 | 0 | 1.0 | 6.0 | 0.00 | 0.00 | 0.00 | 61 | 1011.6 |
| 20260902210005 | 91 | 360 | 0.0 | 9.0 | 0.00 | 0.00 | 0.00 | 62 | 1010.4 |
| 20260902204505 | 91 | 360 | 0.0 | 9.0 | 0.00 | 0.00 | 0.00 | 62 | 1010.4 |
| 20260902203005 | 91 | 360 | 0.0 | 9.0 | 0.00 | 0.00 | 0.00 | 62 | 1010.4 |
| 20260902201505 | 91 | 360 | 0.0 | 9.0 | 0.00 | 0.00 | 0.00 | 62 | 1010.4 |
| 20260902200038 | 91 | 0 | 1.0 | 9.0 | 0.00 | 0.00 | 0.00 | 62 | 1012.5 |
| 20260902200005 | 90 | 360 | 0.0 | 6.0 | 0.00 | 0.00 | 0.00 | 60 | 1010.8 |
| 20260902194505 | 90 | 360 | 0.0 | 6.0 | 0.00 | 0.00 | 0.00 | 60 | 1010.8 |
| 20260902193005 | 90 | 360 | 0.0 | 6.0 | 0.00 | 0.00 | 0.00 | 60 | 1010.8 |
| 20260902191506 | 90 | 360 | 0.0 | 6.0 | 0.00 | 0.00 | 0.00 | 60 | 1010.8 |
| 20260902190018 | 90 | 0 | 1.0 | 6.0 | 0.00 | 0.00 | 0.00 | 60 | 1012.9 |
| 20260902190005 | 89 | 360 | 0.0 | 5.0 | 0.00 | 0.00 | 0.00 | 64 | 1010.9 |
| 20260902184505 | 89 | 360 | 0.0 | 5.0 | 0.00 | 0.00 | 0.00 | 64 | 1010.9 |
| 20260902183005 | 89 | 360 | 0.0 | 5.0 | 0.00 | 0.00 | 0.00 | 64 | 1010.9 |
| 20260902181505 | 89 | 360 | 0.0 | 5.0 | 0.00 | 0.00 | 0.00 | 64 | 1010.9 |
| 20260902180020 | 89 | 0 | 1.0 | 5.0 | 0.00 | 0.00 | 0.00 | 64 | 1013.0 |
| 20260902180007 | 87 | 360 | 0.0 | 4.0 | 0.00 | 0.00 | 0.00 | 68 | 1011.9 |
| 20260902174505 | 87 | 360 | 0.0 | 4.0 | 0.00 | 0.00 | 0.00 | 68 | 1011.9 |
| 20260902173005 | 87 | 360 | 0.0 | 4.0 | 0.00 | 0.00 | 0.00 | 68 | 1011.9 |
| 20260902171506 | 87 | 360 | 0.0 | 4.0 | 0.00 | 0.00 | 0.00 | 68 | 1011.9 |
| 20260902170020 | 87 | 0 | 1.0 | 4.0 | 0.00 | 0.00 | 0.00 | 68 | 1013.9 |
| 20260902170006 | 85 | 360 | 0.0 | 8.0 | 0.00 | 0.00 | 0.00 | 71 | 1011.9 |
| 20260902164506 | 85 | 360 | 0.0 | 8.0 | 0.00 | 0.00 | 0.00 | 71 | 1011.9 |
| 20260902163005 | 85 | 360 | 0.0 | 8.0 | 0.00 | 0.00 | 0.00 | 71 | 1011.9 |
| 20260902161505 | 85 | 360 | 0.0 | 8.0 | 0.00 | 0.00 | 0.00 | 71 | 1011.9 |
| 20260902160040 | 85 | 0 | 1.0 | 8.0 | 0.00 | 0.00 | 0.00 | 71 | 1013.9 |
| 20260902160008 | 82 | 0.0 | 5.0 | 0.00 | 0.00 | 0.00 | 77 | 1012.0 | |
| 20260902154505 | 82 | 0.0 | 5.0 | 0.00 | 0.00 | 0.00 | 77 | 1012.0 | |
| 20260902153005 | 82 | 0.0 | 5.0 | 0.00 | 0.00 | 0.00 | 77 | 1012.0 | |
| 20260902151505 | 82 | 0.0 | 5.0 | 0.00 | 0.00 | 0.00 | 77 | 1012.0 | |
| 20260902150040 | 82 | 0.0 | 5.0 | 0.00 | 0.00 | 0.00 | 77 | 1013.9 | |
| 20260902150005 | 78 | 0.0 | 2.0 | 0.00 | 0.00 | 0.00 | 86 | 1011.8 | |
| 20260902144506 | 78 | 0.0 | 2.0 | 0.00 | 0.00 | 0.00 | 86 | 1011.8 | |
| 20260902143006 | 78 | 0.0 | 2.0 | 0.00 | 0.00 | 0.00 | 86 | 1011.8 | |
| 20260902141505 | 78 | 0.0 | 2.0 | 0.00 | 0.00 | 0.00 | 86 | 1011.8 | |
| 20260902140020 | 79 | 0.0 | 2.0 | 0.00 | 0.00 | 0.00 | 86 | 1013.6 | |
| 20260902140005 | 74 | 0.0 | 2.0 | 0.00 | 0.00 | 0.00 | 94 | 1012.1 | |
| 20260902134505 | 74 | 0.0 | 2.0 | 0.00 | 0.00 | 0.00 | 94 | 1012.1 | |
| 20260902133005 | 74 | 0.0 | 2.0 | 0.00 | 0.00 | 0.00 | 94 | 1012.1 | |
| 20260902131505 | 74 | 0.0 | 2.0 | 0.00 | 0.00 | 0.00 | 94 | 1012.1 | |
| 20260902130019 | 74 | 0.0 | 2.0 | 0.00 | 0.00 | 0.00 | 94 | 1013.8 | |
| 20260902130005 | 73 | 0.0 | 2.0 | 0.00 | 0.00 | 0.00 | 96 | 1012.2 | |
| 20260902124505 | 73 | 0.0 | 2.0 | 0.00 | 0.00 | 0.00 | 96 | 1012.2 | |
| 20260902123006 | 73 | 0.0 | 2.0 | 0.00 | 0.00 | 0.00 | 96 | 1012.2 | |
| 20260902121506 | 73 | 0.0 | 2.0 | 0.00 | 0.00 | 0.00 | 96 | 1012.2 | |
| 20260902120040 | 73 | 0.0 | 2.0 | 0.00 | 0.00 | 0.00 | 96 | 1014.0 | |
| 20260902120006 | 74 | 0.0 | 3.0 | 0.00 | 0.00 | 0.00 | 96 | 1012.2 | |
| 20260902114505 | 74 | 0.0 | 3.0 | 0.00 | 0.00 | 0.00 | 96 | 1012.2 | |
| 20260902113005 | 74 | 0.0 | 3.0 | 0.00 | 0.00 | 0.00 | 96 | 1012.2 | |
| 20260902111505 | 74 | 0.0 | 3.0 | 0.00 | 0.00 | 0.00 | 96 | 1012.2 | |
| 20260902110019 | 74 | 0.0 | 3.0 | 0.00 | 0.00 | 0.00 | 96 | 1014.2 | |
| 20260902110007 | 75 | 0.0 | 1.0 | 0.00 | 0.00 | 0.00 | 96 | 1011.7 | |
| 20260902104505 | 75 | 0.0 | 1.0 | 0.00 | 0.00 | 0.00 | 96 | 1011.7 | |
| 20260902103005 | 75 | 0.0 | 1.0 | 0.00 | 0.00 | 0.00 | 96 | 1011.7 | |
| 20260902101506 | 75 | 0.0 | 1.0 | 0.00 | 0.00 | 0.00 | 96 | 1011.7 | |
| 20260902100019 | 75 | 0.0 | 1.0 | 0.00 | 0.00 | 0.00 | 96 | 1013.8 | |
| 20260902100006 | 75 | 0.0 | 3.0 | 0.00 | 0.00 | 0.00 | 96 | 1011.5 | |
| 20260902094506 | 75 | 0.0 | 3.0 | 0.00 | 0.00 | 0.00 | 96 | 1011.5 | |
| 20260902093007 | 75 | 0.0 | 3.0 | 0.00 | 0.00 | 0.00 | 96 | 1011.5 | |
| 20260902091505 | 75 | 0.0 | 3.0 | 0.00 | 0.00 | 0.00 | 96 | 1011.5 | |
| 20260902090019 | 75 | 0.0 | 3.0 | 0.00 | 0.00 | 0.00 | 96 | 1013.6 | |
| 20260902090005 | 74 | 0.0 | 0.0 | 0.00 | 0.00 | 0.00 | 96 | 1011.5 | |
| 20260902084505 | 74 | 0.0 | 0.0 | 0.00 | 0.00 | 0.00 | 96 | 1011.5 | |
| 20260902083005 | 74 | 0.0 | 0.0 | 0.00 | 0.00 | 0.00 | 96 | 1011.5 | |
| 20260902081505 | 74 | 0.0 | 0.0 | 0.00 | 0.00 | 0.00 | 96 | 1011.5 | |
| 20260902080019 | 75 | 0.0 | 0.0 | 0.00 | 0.00 | 0.00 | 96 | 1013.5 | |
| 20260902080005 | 74 | 0.0 | 0.0 | 0.00 | 0.00 | 0.00 | 96 | 1011.3 | |
| 20260902074506 | 74 | 0.0 | 0.0 | 0.00 | 0.00 | 0.00 | 96 | 1011.3 | |
| 20260902073006 | 74 | 0.0 | 0.0 | 0.00 | 0.00 | 0.00 | 96 | 1011.3 | |
| 20260902071505 | 74 | 0.0 | 0.0 | 0.00 | 0.00 | 0.00 | 96 | 1011.3 | |
| 20260902070018 | 74 | 0.0 | 0.0 | 0.00 | 0.00 | 0.00 | 96 | 1013.3 | |
| 20260902070007 | 73 | 0.0 | 0.0 | 0.00 | 0.00 | 0.00 | 95 | 1011.5 | |
| 20260902064506 | 73 | 0.0 | 0.0 | 0.00 | 0.00 | 0.00 | 95 | 1011.5 | |
| 20260902063005 | 73 | 0.0 | 0.0 | 0.00 | 0.00 | 0.00 | 95 | 1011.5 | |
| 20260902061505 | 73 | 0.0 | 0.0 | 0.00 | 0.00 | 0.00 | 95 | 1011.5 | |
| 20260902060019 | 73 | 0.0 | 0.0 | 0.00 | 0.00 | 0.00 | 95 | 1013.5 | |
| 20260902060006 | 73 | 0.0 | 0.0 | 0.00 | 0.00 | 0.00 | 95 | 1011.9 | |
| 20260902054505 | 73 | 0.0 | 0.0 | 0.00 | 0.00 | 0.00 | 95 | 1011.9 | |
| 20260902053006 | 73 | 0.0 | 0.0 | 0.00 | 0.00 | 0.00 | 95 | 1011.9 |